Time;durP1;ratioP1;P1;durP2;ratioP2;P2;SDS_P1;SDS_P2;PMS_P1;PMS_P2;Temp;Humidity;BMP_temperature;BMP_pressure;BME280_temperature;BME280_humidity;BME280_pressure;Samples;Min_cycle;Max_cycle;Signal;HPM_P1;HPM_P2
2022/10/20 00:00:20;;;;;;;14.73;10.35;;;19.30;99.90;;;;;;5010641;28;20443;-78
2022/10/20 00:02:46;;;;;;;16.70;9.80;;;19.30;99.90;;;;;;5010688;28;20025;-78
2022/10/20 00:05:11;;;;;;;9.52;7.95;;;19.40;99.90;;;;;;5010997;28;20033;-77
2022/10/20 00:07:37;;;;;;;10.60;8.07;;;19.40;99.90;;;;;;5009076;28;20130;-78
2022/10/20 00:10:03;;;;;;;11.68;8.18;;;19.50;99.90;;;;;;5009244;28;20022;-78
2022/10/20 00:12:29;;;;;;;9.90;7.53;;;19.50;99.90;;;;;;5010319;28;20026;-78
2022/10/20 00:14:54;;;;;;;10.30;7.55;;;19.50;99.90;;;;;;5010759;28;20559;-78
2022/10/20 00:17:20;;;;;;;8.95;7.10;;;19.50;99.90;;;;;;5009312;28;20503;-78
2022/10/20 00:19:49;;;;;;;12.20;7.50;;;19.60;99.90;;;;;;5010577;28;20049;-78
2022/10/20 00:22:15;;;;;;;7.18;6.20;;;19.60;99.90;;;;;;5010370;28;20029;-78
2022/10/20 00:24:41;;;;;;;9.07;7.15;;;19.60;99.90;;;;;;5010404;28;20068;-78
2022/10/20 00:27:06;;;;;;;9.88;6.70;;;19.60;99.90;;;;;;5010200;28;20026;-78
2022/10/20 00:29:32;;;;;;;7.43;6.65;;;19.60;99.90;;;;;;5010810;28;20407;-78
2022/10/20 00:31:58;;;;;;;9.68;6.38;;;19.60;99.90;;;;;;5010258;28;20034;-78
2022/10/20 00:34:23;;;;;;;8.02;6.60;;;19.50;99.90;;;;;;5010389;28;20117;-78
2022/10/20 00:36:49;;;;;;;9.88;6.65;;;19.50;99.90;;;;;;5025299;28;20120;-78
2022/10/20 00:39:15;;;;;;;8.13;6.90;;;19.40;99.90;;;;;;5010327;28;20072;-78
2022/10/20 00:41:41;;;;;;;9.65;7.15;;;19.40;99.90;;;;;;5010151;28;20026;-78
2022/10/20 00:44:44;;;;;;;8.00;6.75;;;19.50;99.90;;;;;;5011064;28;20472;-78
2022/10/20 00:47:15;;;;;;;9.45;6.90;;;19.50;99.90;;;;;;5010224;28;20057;-78
2022/10/20 00:49:41;;;;;;;;;;;19.40;99.90;;;;;;5013009;28;20037;-78
2022/10/20 00:52:07;;;;;;;8.45;5.90;;;19.30;99.90;;;;;;5013446;28;20287;-78
2022/10/20 00:54:33;;;;;;;9.23;6.20;;;19.30;99.90;;;;;;5013927;28;20125;-78
2022/10/20 00:56:59;;;;;;;7.03;6.32;;;19.30;99.90;;;;;;5012779;28;20551;-78
2022/10/20 00:59:32;;;;;;;7.80;6.18;;;19.30;99.90;;;;;;5014066;28;20029;-78
2022/10/20 01:02:00;;;;;;;9.93;6.20;;;19.30;99.90;;;;;;5014473;28;20041;-78
2022/10/20 01:04:28;;;;;;;8.68;6.28;;;19.30;99.90;;;;;;5014113;28;20025;-78
2022/10/20 01:06:55;;;;;;;8.27;6.05;;;19.30;99.90;;;;;;5029138;28;20030;-78
2022/10/20 01:09:21;;;;;;;7.70;6.82;;;19.20;99.90;;;;;;5014298;28;20030;-78
2022/10/20 01:12:07;;;;;;;8.27;6.90;;;19.20;99.90;;;;;;5013917;28;20030;-77
2022/10/20 01:14:48;;;;;;;10.40;6.85;;;19.20;99.90;;;;;;5014089;28;20053;-78
2022/10/20 01:17:36;;;;;;;7.32;6.50;;;19.30;99.90;;;;;;5014469;28;20038;-78
2022/10/20 01:20:38;;;;;;;9.50;5.93;;;19.30;99.90;;;;;;4972740;28;20031;-78
2022/10/20 01:23:16;;;;;;;7.38;6.15;;;19.30;99.90;;;;;;4956294;28;20050;-79
2022/10/20 01:25:50;;;;;;;7.43;6.03;;;19.30;99.90;;;;;;4972318;28;20058;-79
2022/10/20 01:28:21;;;;;;;7.22;5.80;;;19.40;99.90;;;;;;4972404;28;20065;-79
2022/10/20 01:30:55;;;;;;;10.90;6.68;;;19.40;99.90;;;;;;4972671;28;20038;-79
2022/10/20 01:33:43;;;;;;;8.68;6.85;;;19.40;99.90;;;;;;4972895;28;20069;-79
2022/10/20 01:36:27;;;;;;;6.43;5.72;;;19.40;99.90;;;;;;4960986;28;20026;-80
2022/10/20 01:39:04;;;;;;;7.88;5.97;;;19.40;99.90;;;;;;4972260;28;20035;-80
2022/10/20 01:41:38;;;;;;;8.45;6.18;;;19.40;99.90;;;;;;4972334;28;20102;-79
2022/10/20 01:44:08;;;;;;;10.55;6.70;;;19.40;99.90;;;;;;4959909;28;20035;-80
2022/10/20 01:46:36;;;;;;;7.35;5.47;;;19.40;99.90;;;;;;4965148;28;20018;-79
2022/10/20 01:49:03;;;;;;;7.82;6.47;;;19.40;99.90;;;;;;4958492;28;20030;-79
2022/10/20 01:51:30;;;;;;;9.82;6.63;;;19.40;99.90;;;;;;4977511;28;20035;-80
2022/10/20 01:53:56;;;;;;;8.15;6.10;;;19.30;99.90;;;;;;4972321;28;20034;-80
2022/10/20 01:57:05;;;;;;;8.48;6.57;;;19.40;99.90;;;;;;4976066;28;20034;-79
2022/10/20 02:00:10;;;;;;;7.63;5.85;;;19.50;99.90;;;;;;5002441;28;20052;-79
2022/10/20 02:02:57;;;;;;;7.45;6.13;;;19.30;99.90;;;;;;5001193;28;20014;-79
2022/10/20 02:06:00;;;;;;;6.53;5.85;;;19.20;99.90;;;;;;5012856;28;20101;-79
2022/10/20 02:08:42;;;;;;;8.27;6.45;;;19.30;99.90;;;;;;5011178;28;20030;-79
2022/10/20 02:11:18;;;;;;;6.47;5.88;;;19.30;99.90;;;;;;5012783;28;20042;-79
2022/10/20 02:13:44;;;;;;;7.57;6.30;;;19.30;99.90;;;;;;5012699;28;20064;-79
2022/10/20 02:16:34;;;;;;;5.88;5.35;;;19.20;99.90;;;;;;5027590;28;20033;-79
2022/10/20 02:19:02;;;;;;;6.45;5.80;;;19.30;99.90;;;;;;5002327;28;20033;-79
2022/10/20 02:21:28;;;;;;;6.45;5.85;;;19.30;99.90;;;;;;5012520;28;20014;-79
2022/10/20 02:23:55;;;;;;;6.97;5.82;;;19.20;99.90;;;;;;5027678;28;20103;-79
2022/10/20 02:26:24;;;;;;;8.07;5.93;;;19.10;99.90;;;;;;5027711;28;20030;-79
2022/10/20 02:28:56;;;;;;;7.60;5.65;;;19.20;99.90;;;;;;5012481;28;20025;-79
2022/10/20 02:31:22;;;;;;;6.30;5.65;;;19.20;99.90;;;;;;5009588;28;20044;-79
2022/10/20 02:33:48;;;;;;;6.18;5.53;;;19.20;99.90;;;;;;5012529;28;20137;-79
2022/10/20 02:36:20;;;;;;;6.95;6.18;;;19.20;99.90;;;;;;5012222;28;20258;-79
2022/10/20 02:38:46;;;;;;;6.80;5.60;;;19.20;99.90;;;;;;5012152;28;20108;-79
2022/10/20 02:41:12;;;;;;;6.53;5.93;;;19.20;99.90;;;;;;5012034;28;20568;-79
2022/10/20 02:43:38;;;;;;;8.63;5.78;;;19.20;99.90;;;;;;5012230;28;20033;-78
2022/10/20 02:46:04;;;;;;;6.53;5.60;;;19.20;99.90;;;;;;5011133;28;20029;-79
2022/10/20 02:48:29;;;;;;;6.65;5.63;;;19.20;99.90;;;;;;5010998;28;20058;-79
2022/10/20 02:50:56;;;;;;;6.55;5.82;;;19.20;99.90;;;;;;5011760;28;20061;-79
2022/10/20 02:53:21;;;;;;;7.40;5.30;;;19.20;99.90;;;;;;5010548;28;20032;-79
2022/10/20 02:55:47;;;;;;;10.85;6.45;;;19.20;99.90;;;;;;5011613;28;20037;-79
2022/10/20 02:58:13;;;;;;;8.15;6.32;;;19.10;99.90;;;;;;5012027;28;20507;-79
2022/10/20 03:00:38;;;;;;;7.07;5.78;;;19.10;99.90;;;;;;5027205;28;20411;-79
2022/10/20 03:03:04;;;;;;;6.22;5.38;;;19.20;99.90;;;;;;5011636;28;20021;-79
2022/10/20 03:05:30;;;;;;;6.20;5.55;;;19.10;99.90;;;;;;5011950;28;20606;-79
2022/10/20 03:07:56;;;;;;;6.00;5.28;;;19.10;99.90;;;;;;5011837;28;20034;-79
2022/10/20 03:10:21;;;;;;;7.50;5.53;;;19.10;99.90;;;;;;5026658;28;20038;-79
2022/10/20 03:12:47;;;;;;;6.53;5.15;;;19.10;99.90;;;;;;5011115;28;20454;-79
2022/10/20 03:15:13;;;;;;;5.60;5.10;;;19.10;99.90;;;;;;5011709;28;20037;-78
2022/10/20 03:17:38;;;;;;;8.20;5.10;;;19.20;99.90;;;;;;5011707;28;20033;-79
2022/10/20 03:20:05;;;;;;;6.18;5.13;;;19.20;99.90;;;;;;5011723;28;20030;-79
2022/10/20 03:22:31;;;;;;;7.22;5.65;;;19.20;99.90;;;;;;5011466;28;20095;-79
2022/10/20 03:24:56;;;;;;;5.90;5.30;;;19.20;99.90;;;;;;5011472;28;20046;-78
2022/10/20 03:27:22;;;;;;;8.40;5.63;;;19.10;99.90;;;;;;5011603;28;20551;-78
2022/10/20 03:29:48;;;;;;;7.55;5.80;;;19.20;99.90;;;;;;5011481;28;20557;-79
2022/10/20 03:32:14;;;;;;;8.90;6.35;;;19.10;99.90;;;;;;5011352;28;20022;-79
2022/10/20 03:34:39;;;;;;;9.90;5.47;;;19.10;99.90;;;;;;5011505;28;20059;-79
2022/10/20 03:37:05;;;;;;;6.50;5.90;;;19.00;99.90;;;;;;5011188;28;20057;-79
2022/10/20 03:39:31;;;;;;;7.82;5.65;;;19.10;99.90;;;;;;5011153;28;20033;-79
2022/10/20 03:41:56;;;;;;;6.90;6.20;;;19.10;99.90;;;;;;5011387;28;20569;-79
2022/10/20 03:44:23;;;;;;;6.20;5.28;;;19.00;99.90;;;;;;5010030;28;20530;-79
2022/10/20 03:46:49;;;;;;;7.00;5.03;;;18.90;99.90;;;;;;5018146;28;20049;-79
2022/10/20 03:49:15;;;;;;;5.38;4.88;;;18.90;99.90;;;;;;5007224;28;20057;-79
2022/10/20 03:51:40;;;;;;;7.88;5.80;;;18.90;99.90;;;;;;4998206;28;20032;-79
2022/10/20 03:54:06;;;;;;;6.20;5.05;;;18.90;99.90;;;;;;5010658;28;20556;-79
2022/10/20 03:56:32;;;;;;;7.40;5.00;;;18.90;99.90;;;;;;5011336;28;20022;-79
2022/10/20 03:58:58;;;;;;;5.93;5.10;;;18.90;99.90;;;;;;5011040;28;20022;-79
2022/10/20 04:01:29;;;;;;;7.15;5.88;;;18.90;99.90;;;;;;5011038;28;20471;-80
2022/10/20 04:03:54;;;;;;;7.07;5.20;;;18.90;99.90;;;;;;5010905;28;20084;-80
2022/10/20 04:06:20;;;;;;;6.05;5.30;;;18.90;99.90;;;;;;5011172;28;20034;-80
2022/10/20 04:08:46;;;;;;;6.32;5.32;;;18.90;99.90;;;;;;5025736;28;20030;-80
2022/10/20 04:11:12;;;;;;;5.50;4.90;;;18.80;99.90;;;;;;5010772;28;20022;-80
2022/10/20 04:13:38;;;;;;;7.75;5.32;;;18.90;99.90;;;;;;5010644;28;20069;-80
2022/10/20 04:16:03;;;;;;;6.40;5.13;;;18.80;99.90;;;;;;5026070;28;20084;-80
2022/10/20 04:18:30;;;;;;;7.13;5.55;;;18.80;99.90;;;;;;5011179;28;20037;-79
2022/10/20 04:20:56;;;;;;;7.72;4.75;;;18.90;99.90;;;;;;5010846;28;20026;-80
2022/10/20 04:23:22;;;;;;;6.38;5.15;;;18.90;99.90;;;;;;5010736;28;20038;-80
2022/10/20 04:25:47;;;;;;;6.40;5.03;;;19.00;99.90;;;;;;5014513;28;20033;-80
2022/10/20 04:28:15;;;;;;;7.35;5.93;;;18.90;99.90;;;;;;5030000;28;20084;-80
2022/10/20 04:30:41;;;;;;;5.50;4.85;;;19.00;99.90;;;;;;5014614;28;20558;-80
2022/10/20 04:33:07;;;;;;;7.50;5.50;;;19.00;99.90;;;;;;5014612;28;20080;-80
2022/10/20 04:35:33;;;;;;;5.97;5.32;;;19.00;99.90;;;;;;5029829;28;20026;-80
2022/10/20 04:37:58;;;;;;;6.90;4.95;;;18.90;99.90;;;;;;5014831;28;20044;-80
2022/10/20 04:40:24;;;;;;;6.57;5.47;;;18.80;99.90;;;;;;5029518;28;20021;-80
2022/10/20 04:42:50;;;;;;;8.68;5.75;;;18.70;99.90;;;;;;5014379;28;20026;-80
2022/10/20 04:45:15;;;;;;;8.52;5.65;;;18.70;99.90;;;;;;5014642;28;20021;-80
2022/10/20 04:47:41;;;;;;;8.65;5.45;;;18.80;99.90;;;;;;5014413;28;20479;-80
2022/10/20 04:50:07;;;;;;;9.52;5.63;;;18.80;99.90;;;;;;5014368;28;20014;-80
2022/10/20 04:52:33;;;;;;;9.82;6.07;;;18.90;99.90;;;;;;5014548;28;20026;-80
2022/10/20 04:54:59;;;;;;;7.20;5.68;;;18.80;99.90;;;;;;5014260;28;20503;-80
2022/10/20 04:57:24;;;;;;;9.95;6.28;;;18.90;99.90;;;;;;5014070;28;20550;-80
2022/10/20 04:59:50;;;;;;;8.05;5.90;;;18.90;99.90;;;;;;5014207;28;20084;-80
2022/10/20 05:02:16;;;;;;;5.53;5.03;;;18.90;99.90;;;;;;5029191;28;20029;-80
2022/10/20 05:04:42;;;;;;;7.43;5.93;;;19.00;99.90;;;;;;5013917;28;20519;-80
2022/10/20 05:07:08;;;;;;;7.25;5.40;;;19.00;99.90;;;;;;5029373;28;20133;-80
2022/10/20 05:09:33;;;;;;;10.32;6.20;;;19.00;99.90;;;;;;5013615;28;20032;-80
2022/10/20 05:11:59;;;;;;;8.55;6.30;;;19.00;99.90;;;;;;5014254;28;20030;-80
2022/10/20 05:14:25;;;;;;;7.88;5.85;;;19.10;99.90;;;;;;5028758;28;20030;-80
2022/10/20 05:16:51;;;;;;;8.98;6.43;;;19.10;99.90;;;;;;5014019;28;20456;-80
2022/10/20 05:19:17;;;;;;;11.20;6.97;;;19.10;99.90;;;;;;5014241;28;20022;-80
2022/10/20 05:21:43;;;;;;;10.10;6.15;;;19.20;99.90;;;;;;5029329;28;20030;-80
2022/10/20 05:24:14;;;;;;;7.18;5.70;;;19.20;99.90;;;;;;5013335;28;20473;-80
2022/10/20 05:26:40;;;;;;;;;;;19.20;99.90;;;;;;5029432;28;20116;-80
2022/10/20 05:29:07;;;;;;;7.53;6.70;;;19.20;99.90;;;;;;5013328;28;19995;-80
2022/10/20 05:31:41;;;;;;;10.85;7.25;;;19.20;99.90;;;;;;5013691;28;20499;-81
2022/10/20 05:34:10;;;;;;;8.48;7.45;;;19.30;99.90;;;;;;5012141;28;20095;-81
2022/10/20 05:36:36;;;;;;;13.07;8.80;;;19.30;99.90;;;;;;5028742;28;20064;-80
2022/10/20 05:39:02;;;;;;;10.40;7.32;;;19.30;99.90;;;;;;5013753;28;20014;-80
2022/10/20 05:41:30;;;;;;;8.60;7.03;;;19.30;99.90;;;;;;5012981;28;20030;-80
2022/10/20 05:43:59;;;;;;;8.98;6.72;;;19.30;99.90;;;;;;5028810;28;20559;-81
2022/10/20 05:46:33;;;;;;;7.80;6.95;;;19.30;99.90;;;;;;5013486;28;20065;-81
2022/10/20 05:49:01;;;;;;;7.35;6.60;;;19.30;99.90;;;;;;5028181;28;20026;-81
2022/10/20 05:51:33;;;;;;;10.60;7.22;;;19.20;99.90;;;;;;5013256;28;20038;-81
2022/10/20 05:53:59;;;;;;;9.40;7.00;;;19.20;99.90;;;;;;5028445;28;20052;-81
2022/10/20 05:56:26;;;;;;;9.80;7.97;;;19.30;99.90;;;;;;5012935;28;20026;-81
2022/10/20 05:58:52;;;;;;;10.80;7.53;;;19.30;99.90;;;;;;5028429;28;20026;-81
2022/10/20 06:01:37;;;;;;;10.18;7.78;;;19.30;99.90;;;;;;5013297;28;20025;-81
2022/10/20 06:04:04;;;;;;;10.80;7.70;;;19.20;99.90;;;;;;5013191;28;20018;-81
2022/10/20 06:06:30;;;;;;;11.80;8.02;;;19.30;99.90;;;;;;5028093;28;20040;-81
2022/10/20 06:08:59;;;;;;;10.63;7.60;;;19.30;99.90;;;;;;5013061;28;20129;-81
2022/10/20 06:11:25;;;;;;;9.65;7.20;;;19.30;99.90;;;;;;5012588;28;20030;-81
2022/10/20 06:13:51;;;;;;;9.10;6.50;;;19.30;99.90;;;;;;5012885;28;20061;-80
2022/10/20 06:16:21;;;;;;;8.77;6.90;;;19.30;99.90;;;;;;5012657;28;20510;-81
2022/10/20 06:18:47;;;;;;;8.25;6.57;;;19.20;99.90;;;;;;5012310;28;20018;-81
2022/10/20 06:21:16;;;;;;;8.98;6.85;;;19.20;99.90;;;;;;5011495;28;20527;-81
2022/10/20 06:23:42;;;;;;;7.43;6.57;;;19.20;99.90;;;;;;5012281;28;20042;-81
2022/10/20 06:26:16;;;;;;;7.43;6.63;;;19.30;99.90;;;;;;5012247;28;20511;-81
2022/10/20 06:28:42;;;;;;;8.75;6.85;;;19.30;99.90;;;;;;5012381;28;20088;-81
2022/10/20 06:31:23;;;;;;;8.10;7.15;;;19.20;99.90;;;;;;5027663;28;20029;-81
2022/10/20 06:33:50;;;;;;;8.02;7.00;;;19.30;99.90;;;;;;5012938;28;20026;-81
2022/10/20 06:36:17;;;;;;;9.55;6.72;;;19.30;99.90;;;;;;5012353;28;20026;-81
2022/10/20 06:38:43;;;;;;;7.72;6.90;;;19.20;99.90;;;;;;5012523;28;20026;-81
2022/10/20 06:41:12;;;;;;;11.07;7.70;;;19.20;99.90;;;;;;5010712;28;20032;-81
2022/10/20 06:43:37;;;;;;;9.43;7.28;;;19.20;99.90;;;;;;5012079;28;20032;-81
2022/10/20 06:46:05;;;;;;;11.13;7.72;;;19.20;99.90;;;;;;5005976;28;20097;-81
2022/10/20 06:48:32;;;;;;;13.05;8.35;;;19.20;99.90;;;;;;5011434;28;20088;-81
2022/10/20 06:51:00;;;;;;;12.00;8.70;;;19.10;99.90;;;;;;4992897;28;20022;-81
2022/10/20 06:53:26;;;;;;;10.23;8.50;;;19.20;99.90;;;;;;5009728;28;20030;-82
2022/10/20 06:55:58;;;;;;;11.43;8.93;;;19.10;99.90;;;;;;5010127;28;20076;-82
2022/10/20 06:58:23;;;;;;;10.48;8.43;;;19.20;99.90;;;;;;5025362;28;20030;-82
2022/10/20 07:01:11;;;;;;;13.20;8.68;;;19.20;99.90;;;;;;5025365;28;20057;-81
2022/10/20 07:03:38;;;;;;;9.38;8.30;;;19.30;99.90;;;;;;5003887;28;20034;-81
2022/10/20 07:06:05;;;;;;;13.48;9.15;;;19.20;99.90;;;;;;5005159;28;20030;-82
2022/10/20 07:08:33;;;;;;;13.20;8.50;;;19.20;99.90;;;;;;5008607;28;20033;-82
2022/10/20 07:11:07;;;;;;;10.23;8.02;;;19.30;99.90;;;;;;5007336;28;20116;-83
2022/10/20 07:13:34;;;;;;;12.68;8.30;;;19.20;99.90;;;;;;4999906;28;20033;-82
2022/10/20 07:16:01;;;;;;;10.82;8.98;;;19.20;99.90;;;;;;5008655;28;20038;-82
2022/10/20 07:18:28;;;;;;;9.52;8.20;;;19.20;99.90;;;;;;5024775;28;20120;-82
2022/10/20 07:20:59;;;;;;;10.63;8.75;;;19.20;99.90;;;;;;5009117;28;20053;-82
2022/10/20 07:23:26;;;;;;;13.63;8.63;;;19.20;99.90;;;;;;5009971;28;20065;-82
2022/10/20 07:25:59;;;;;;;10.40;9.27;;;19.20;99.90;;;;;;5009773;28;20038;-82
2022/10/20 07:28:24;;;;;;;12.38;9.43;;;19.20;99.90;;;;;;5007539;28;20494;-84
2022/10/20 07:30:50;;;;;;;13.98;9.15;;;19.10;99.90;;;;;;5020198;28;20065;-84
2022/10/20 07:33:16;;;;;;;11.73;9.02;;;19.10;99.90;;;;;;5007835;28;20040;-86
2022/10/20 07:35:41;;;;;;;14.27;9.93;;;19.10;99.90;;;;;;5009212;28;20038;-85
2022/10/20 07:38:07;;;;;;;12.43;9.75;;;19.20;99.90;;;;;;5009440;28;20105;-85
2022/10/20 07:40:33;;;;;;;13.80;9.77;;;19.20;99.90;;;;;;5023918;28;20018;-83
2022/10/20 07:42:58;;;;;;;14.25;10.85;;;19.20;99.90;;;;;;5009472;28;20021;-83
2022/10/20 07:45:24;;;;;;;12.02;9.45;;;19.20;99.90;;;;;;5009400;28;20073;-81
2022/10/20 07:47:49;;;;;;;16.60;10.80;;;19.20;99.90;;;;;;5009388;28;20456;-87
2022/10/20 07:50:15;;;;;;;15.80;10.30;;;19.20;99.90;;;;;;5024077;28;20018;-85
2022/10/20 07:52:41;;;;;;;14.65;10.35;;;19.30;99.90;;;;;;5009451;28;20022;-85
2022/10/20 07:55:07;;;;;;;17.08;10.60;;;19.30;99.90;;;;;;5009543;28;20044;-83
2022/10/20 07:57:33;;;;;;;16.75;9.88;;;19.30;99.90;;;;;;5009293;28;20084;-84
2022/10/20 07:59:59;;;;;;;18.75;10.82;;;19.30;99.90;;;;;;5008305;28;20021;-87
2022/10/20 08:02:24;;;;;;;17.30;10.52;;;19.30;99.90;;;;;;5009949;28;20117;-87
2022/10/20 08:04:50;;;;;;;12.07;10.23;;;19.40;99.90;;;;;;4998137;28;20507;-87
2022/10/20 08:07:16;;;;;;;12.82;10.48;;;19.40;99.90;;;;;;5009237;28;20384;-87
2022/10/20 08:09:41;;;;;;;13.02;10.27;;;19.40;99.90;;;;;;5008914;28;20389;-87
2022/10/20 08:12:07;;;;;;;12.77;9.82;;;19.40;99.90;;;;;;5008713;28;20041;-86
2022/10/20 08:14:36;;;;;;;15.88;9.77;;;19.40;99.90;;;;;;5009687;28;20026;-89
2022/10/20 08:17:02;;;;;;;16.83;10.35;;;19.40;99.90;;;;;;5009036;28;20523;-88
2022/10/20 08:19:28;;;;;;;14.82;10.68;;;19.40;99.90;;;;;;5010123;28;20476;-88
2022/10/20 08:21:54;;;;;;;14.73;10.63;;;19.30;99.90;;;;;;5008725;28;20080;-87
2022/10/20 08:24:20;;;;;;;21.35;10.05;;;19.40;99.90;;;;;;5009008;28;20092;-89
2022/10/20 08:26:46;;;;;;;14.68;9.45;;;19.40;99.90;;;;;;5009397;28;20522;-88
2022/10/20 08:29:12;;;;;;;11.70;9.27;;;19.40;99.90;;;;;;5009685;28;20109;-88
2022/10/20 08:31:38;;;;;;;13.88;9.18;;;19.40;99.90;;;;;;5002043;28;20109;-89
2022/10/20 08:34:04;;;;;;;12.82;8.50;;;19.40;99.90;;;;;;5024460;28;20030;-88
2022/10/20 08:36:30;;;;;;;13.30;9.45;;;19.40;99.90;;;;;;5008308;28;20034;-88
2022/10/20 08:38:58;;;;;;;10.63;9.07;;;19.40;99.90;;;;;;5008461;28;20067;-88
2022/10/20 08:41:32;;;;;;;11.55;8.07;;;19.40;99.90;;;;;;5007730;28;20080;-89
2022/10/20 08:44:00;;;;;;;10.65;9.27;;;19.40;99.90;;;;;;5009099;28;20076;-89
2022/10/20 08:46:33;;;;;;;12.80;8.77;;;19.40;99.90;;;;;;5008632;28;20026;-89
2022/10/20 08:48:59;;;;;;;15.07;9.23;;;19.40;99.90;;;;;;5023960;28;20057;-88
2022/10/20 08:51:32;;;;;;;12.15;9.40;;;19.50;99.90;;;;;;5008861;28;20093;-89
2022/10/20 08:54:00;;;;;;;11.00;9.05;;;19.50;99.90;;;;;;5024261;28;20107;-88
2022/10/20 08:56:28;;;;;;;11.65;8.68;;;19.50;99.90;;;;;;5023472;28;20583;-88
2022/10/20 08:58:55;;;;;;;14.75;9.13;;;19.50;99.90;;;;;;5023325;28;20034;-88
2022/10/20 09:01:29;;;;;;;13.05;10.15;;;19.50;99.90;;;;;;5023896;28;20038;-88
2022/10/20 09:03:58;;;;;;;16.90;9.25;;;19.50;99.90;;;;;;5024472;28;20017;-88
2022/10/20 09:06:24;;;;;;;14.35;9.90;;;19.50;99.90;;;;;;5007744;28;20038;-89
2022/10/20 09:08:51;;;;;;;18.80;10.48;;;19.50;99.90;;;;;;5023578;28;20327;-89
2022/10/20 09:11:30;;;;;;;11.85;8.85;;;19.60;99.90;;;;;;5011540;28;20044;-88
2022/10/20 09:13:56;;;;;;;12.93;9.43;;;19.60;99.90;;;;;;5028028;28;20029;-89
2022/10/20 09:16:32;;;;;;;12.75;8.55;;;19.60;99.90;;;;;;5009307;28;20120;-88
2022/10/20 09:19:00;;;;;;;12.85;8.30;;;19.60;99.90;;;;;;5010620;28;20018;-88
2022/10/20 09:21:27;;;;;;;11.48;8.75;;;19.60;99.90;;;;;;5002415;28;20031;-88
2022/10/20 09:23:59;;;;;;;13.70;9.23;;;19.60;99.90;;;;;;5011387;28;20516;-89
2022/10/20 09:26:39;;;;;;;17.27;9.30;;;19.70;99.90;;;;;;5012387;28;20037;-88
2022/10/20 09:29:07;;;;;;;;;;;19.60;99.90;;;;;;5010912;28;20053;-88
2022/10/20 09:31:36;;;;;;;14.05;9.48;;;19.70;99.90;;;;;;5008793;28;19910;-87
2022/10/20 09:34:23;;;;;;;15.40;9.90;;;19.60;99.90;;;;;;5007619;28;20025;-88
2022/10/20 09:36:51;;;;;;;13.10;9.45;;;19.60;99.90;;;;;;5011170;28;20077;-88
2022/10/20 09:39:26;;;;;;;13.15;8.57;;;19.60;99.90;;;;;;5010572;28;20112;-88
2022/10/20 09:42:02;;;;;;;10.88;8.80;;;19.70;99.90;;;;;;5030359;28;20026;-89
2022/10/20 09:44:32;;;;;;;13.73;8.52;;;19.70;99.90;;;;;;5011812;28;20484;-89
2022/10/20 09:46:59;;;;;;;9.73;7.93;;;19.80;99.90;;;;;;5011184;28;20038;-89
2022/10/20 09:49:35;;;;;;;11.30;8.52;;;19.80;99.90;;;;;;5011858;28;20014;-89
2022/10/20 09:52:03;;;;;;;10.40;8.15;;;19.80;99.90;;;;;;5011558;28;20091;-88
2022/10/20 09:54:29;;;;;;;10.68;8.05;;;19.70;99.90;;;;;;5010162;28;20049;-88
2022/10/20 09:57:13;;;;;;;10.98;8.18;;;19.80;99.90;;;;;;5011155;28;20065;-88
2022/10/20 09:59:44;;;;;;;13.90;9.27;;;19.70;99.90;;;;;;5025983;28;20018;-88
2022/10/20 10:02:16;;;;;;;10.48;8.32;;;19.60;99.90;;;;;;5010948;28;20034;-88
2022/10/20 10:04:45;;;;;;;14.45;9.02;;;19.60;99.90;;;;;;5010273;28;20078;-83
2022/10/20 10:07:31;;;;;;;13.63;8.75;;;19.70;99.90;;;;;;5010739;28;20053;-84
2022/10/20 10:10:04;;;;;;;14.48;8.73;;;19.80;99.90;;;;;;5010550;28;20030;-87
2022/10/20 10:12:31;;;;;;;11.70;8.85;;;19.80;99.90;;;;;;5010967;28;20064;-86
2022/10/20 10:15:19;;;;;;;11.88;8.93;;;19.90;99.90;;;;;;5010895;28;20034;-87
2022/10/20 10:17:45;;;;;;;16.05;9.85;;;19.90;99.90;;;;;;4993674;28;20144;-87
2022/10/20 10:20:11;;;;;;;16.73;9.88;;;19.90;99.90;;;;;;5010348;28;20101;-88
2022/10/20 10:22:38;;;;;;;15.73;10.30;;;19.90;99.90;;;;;;5008348;28;20411;-87
2022/10/20 10:25:06;;;;;;;12.85;9.73;;;20.00;99.90;;;;;;5010367;28;20067;-87
2022/10/20 10:27:34;;;;;;;12.55;9.30;;;20.00;99.90;;;;;;5009400;28;20112;-85
2022/10/20 10:30:48;;;;;;;13.60;10.20;;;20.10;99.90;;;;;;5010178;28;20026;-84
2022/10/20 10:33:28;;;;;;;14.02;10.20;;;20.30;99.90;;;;;;4996900;28;20042;-84
2022/10/20 10:35:54;;;;;;;9.73;8.20;;;20.40;99.90;;;;;;5010704;28;20041;-85
2022/10/20 10:38:20;;;;;;;14.23;9.30;;;20.50;99.90;;;;;;5010410;28;20026;-85
2022/10/20 10:40:57;;;;;;;14.23;9.35;;;20.60;99.90;;;;;;5009475;28;20450;-88
2022/10/20 10:43:28;;;;;;;13.48;9.05;;;20.70;99.90;;;;;;5010929;28;20099;-87
2022/10/20 10:46:05;;;;;;;13.02;8.95;;;20.70;99.90;;;;;;5010155;28;20172;-86
2022/10/20 10:48:49;;;;;;;15.48;10.75;;;20.80;99.90;;;;;;5010503;28;20040;-86
2022/10/20 10:51:19;;;;;;;15.98;9.88;;;20.80;99.90;;;;;;5004402;28;20029;-86
2022/10/20 10:53:58;;;;;;;15.95;9.77;;;20.80;99.90;;;;;;5008725;28;20124;-84
2022/10/20 10:56:43;;;;;;;11.95;9.77;;;20.70;99.90;;;;;;5009845;28;20080;-85
2022/10/20 10:59:26;;;;;;;13.05;8.60;;;20.60;99.90;;;;;;5009738;28;20112;-85
2022/10/20 11:02:13;;;;;;;10.35;8.60;;;20.60;99.90;;;;;;5009684;28;20026;-85
2022/10/20 11:05:05;;;;;;;11.13;8.70;;;20.60;99.90;;;;;;5010567;28;20049;-85
2022/10/20 11:07:44;;;;;;;12.20;8.73;;;20.60;99.90;;;;;;5009729;28;20036;-85
2022/10/20 11:10:43;;;;;;;12.25;8.30;;;20.70;99.90;;;;;;5009684;28;20124;-85
2022/10/20 11:13:41;;;;;;;10.57;8.68;;;20.70;99.90;;;;;;5014473;28;20072;-85
2022/10/20 11:16:50;;;;;;;10.60;7.35;;;20.80;99.90;;;;;;5004027;28;20045;-85
2022/10/20 11:19:30;;;;;;;9.43;7.38;;;20.80;99.90;;;;;;4997334;28;20026;-85
2022/10/20 11:22:19;;;;;;;13.55;8.30;;;20.80;99.90;;;;;;5009708;28;20526;-85
2022/10/20 11:25:01;;;;;;;11.38;8.20;;;20.90;99.90;;;;;;5009845;28;20074;-85
2022/10/20 11:27:32;;;;;;;12.88;8.43;;;21.00;99.90;;;;;;4998266;28;20030;-84
2022/10/20 11:30:07;;;;;;;;;;;21.00;99.90;;;;;;5023723;28;20014;-85
2022/10/20 11:32:38;;;;;;;15.13;8.20;;;21.10;99.90;;;;;;5006527;28;19955;-85
2022/10/20 11:35:38;;;;;;;11.65;8.27;;;21.00;99.90;;;;;;5007378;28;20042;-84
2022/10/20 11:38:30;;;;;;;12.52;9.07;;;20.90;99.90;;;;;;5009831;28;20073;-84
2022/10/20 11:41:04;;;;;;;;;;;20.90;99.90;;;;;;5009346;28;20022;-84
2022/10/20 11:43:39;;;;;;;9.85;6.93;;;20.80;99.90;;;;;;5008547;28;19905;-84
2022/10/20 11:46:08;;;;;;;12.30;8.85;;;20.80;99.90;;;;;;5005257;28;20052;-83
2022/10/20 11:48:49;;;;;;;10.88;8.50;;;20.80;99.90;;;;;;5004985;28;20026;-83
2022/10/20 11:51:29;;;;;;;12.05;8.30;;;20.80;99.90;;;;;;5009061;28;20030;-84
2022/10/20 11:54:33;;;;;;;15.10;8.15;;;20.90;99.90;;;;;;5009465;28;20030;-84
2022/10/20 11:57:28;;;;;;;10.90;7.93;;;21.00;99.90;;;;;;5010294;28;20149;-84
2022/10/20 12:00:36;;;;;;;13.07;8.27;;;21.10;99.90;;;;;;4999342;28;20014;-84
2022/10/20 12:03:29;;;;;;;14.27;8.38;;;21.10;99.90;;;;;;4936130;29;20146;-85
2022/10/20 12:06:25;;;;;;;10.57;7.65;;;21.10;99.90;;;;;;4948572;29;20065;-85
2022/10/20 12:08:54;;;;;;;11.38;7.88;;;21.20;99.90;;;;;;4931959;29;20027;-85
2022/10/20 12:11:47;;;;;;;10.38;7.80;;;21.20;99.90;;;;;;4942109;29;20043;-85
2022/10/20 12:14:13;;;;;;;15.27;7.85;;;21.20;99.90;;;;;;4943923;29;20027;-85
2022/10/20 12:16:51;;;;;;;8.32;7.32;;;21.20;99.90;;;;;;4926514;29;20047;-85
2022/10/20 12:19:33;;;;;;;10.02;7.35;;;21.20;99.90;;;;;;4948170;29;20106;-85
2022/10/20 12:22:02;;;;;;;10.73;7.43;;;21.20;99.90;;;;;;4948388;29;20035;-85
2022/10/20 12:24:48;;;;;;;13.57;7.35;;;21.10;99.90;;;;;;4932622;29;20197;-86
2022/10/20 12:27:19;;;;;;;14.35;8.30;;;21.10;99.90;;;;;;4891407;29;20040;-85
2022/10/20 12:29:47;;;;;;;11.63;8.13;;;21.20;99.90;;;;;;4891259;29;20087;-84
2022/10/20 12:32:51;;;;;;;12.05;8.15;;;21.30;99.90;;;;;;4890664;29;20045;-84
2022/10/20 12:35:22;;;;;;;14.60;8.85;;;21.30;99.90;;;;;;4891427;29;20039;-83
2022/10/20 12:37:54;;;;;;;18.27;8.70;;;21.30;99.90;;;;;;4902152;28;20050;-83
2022/10/20 12:40:52;;;;;;;12.60;8.00;;;21.20;99.90;;;;;;4953325;28;20131;-83
2022/10/20 12:43:35;;;;;;;17.40;8.55;;;21.20;99.90;;;;;;4945524;29;20098;-83
2022/10/20 12:46:10;;;;;;;18.13;8.02;;;21.20;99.90;;;;;;4964820;28;20563;-83
2022/10/20 12:48:42;;;;;;;16.88;8.77;;;21.30;99.90;;;;;;4971665;28;20120;-83
2022/10/20 12:51:20;;;;;;;14.27;8.70;;;21.30;99.90;;;;;;4954518;28;20129;-84
2022/10/20 12:53:53;;;;;;;13.43;7.65;;;21.30;99.90;;;;;;4971457;28;20330;-83
2022/10/20 12:56:20;;;;;;;10.02;6.60;;;21.20;99.90;;;;;;4970864;28;20077;-83
2022/10/20 12:59:19;;;;;;;8.68;6.55;;;21.20;99.90;;;;;;4954673;28;20086;-83
2022/10/20 13:02:23;;;;;;;9.27;6.90;;;21.20;99.90;;;;;;4960694;28;20174;-83
2022/10/20 13:05:01;;;;;;;10.48;7.03;;;21.20;99.90;;;;;;4965117;28;20035;-83